createdAt,value
2022-08-21T00:00:42.368Z,100.00
2022-08-21T00:04:57.048Z,100.00
2022-08-21T00:09:02.892Z,100.00
2022-08-21T00:13:07.863Z,100.00
2022-08-21T00:17:09.344Z,100.00
2022-08-21T00:21:13.518Z,100.00
2022-08-21T00:25:16.491Z,100.00
2022-08-21T00:29:21.912Z,100.00
2022-08-21T00:33:25.154Z,100.00
2022-08-21T00:37:26.698Z,100.00
2022-08-21T00:41:38.061Z,100.00
2022-08-21T00:45:40.719Z,100.00
2022-08-21T00:49:42.787Z,100.00
2022-08-21T00:53:50.653Z,100.00
2022-08-21T00:57:58.015Z,100.00
2022-08-21T01:01:59.593Z,100.00
2022-08-21T01:06:01.392Z,100.00
2022-08-21T01:10:05.554Z,100.00
2022-08-21T01:14:07.043Z,100.00
2022-08-21T01:18:10.444Z,100.00
2022-08-21T01:22:12.015Z,100.00
2022-08-21T01:26:15.349Z,100.00
2022-08-21T01:30:22.858Z,100.00
2022-08-21T01:34:24.492Z,100.00
2022-08-21T01:38:26.373Z,100.00
2022-08-21T01:42:29.068Z,100.00
2022-08-21T01:46:30.715Z,100.00
2022-08-21T01:50:32.172Z,100.00
2022-08-21T01:54:34.495Z,100.00
2022-08-21T01:58:36.468Z,100.00
2022-08-21T02:02:39.321Z,100.00
2022-08-21T02:06:40.824Z,100.00
2022-08-21T02:10:42.357Z,100.00
2022-08-21T02:14:50.568Z,100.00
2022-08-21T02:18:52.674Z,100.00
2022-08-21T02:22:54.938Z,100.00
2022-08-21T02:26:56.468Z,100.00
2022-08-21T02:30:58.854Z,100.00
2022-08-21T02:35:00.339Z,100.00
2022-08-21T02:39:01.799Z,100.00
2022-08-21T02:43:05.243Z,100.00
2022-08-21T02:47:06.735Z,100.00
2022-08-21T02:51:11.937Z,100.00
2022-08-21T02:55:13.620Z,100.00
2022-08-21T02:59:16.477Z,100.00
2022-08-21T03:03:18.153Z,100.00
2022-08-21T03:07:19.586Z,100.00
2022-08-21T03:11:21.808Z,100.00
2022-08-21T03:15:27.104Z,100.00
2022-08-21T03:19:28.600Z,100.00
2022-08-21T03:23:32.561Z,100.00
2022-08-21T03:27:35.025Z,100.00
2022-08-21T03:31:36.782Z,100.00
2022-08-21T03:35:38.218Z,100.00
2022-08-21T03:39:39.854Z,100.00
2022-08-21T03:43:41.338Z,100.00
2022-08-21T03:47:53.402Z,100.00
2022-08-21T03:51:59.143Z,100.00
2022-08-21T03:56:01.530Z,100.00
2022-08-21T04:00:05.562Z,100.00
2022-08-21T04:04:07.087Z,100.00
2022-08-21T04:08:09.160Z,100.00
2022-08-21T04:12:10.765Z,100.00
2022-08-21T04:16:13.352Z,100.00
2022-08-21T04:20:16.159Z,100.00
2022-08-21T04:24:17.629Z,100.00
2022-08-21T04:28:19.089Z,100.00
2022-08-21T04:32:26.908Z,100.00
2022-08-21T04:36:28.362Z,100.00
2022-08-21T04:40:30.052Z,100.00
2022-08-21T04:44:31.884Z,100.00
2022-08-21T04:48:34.061Z,100.00
2022-08-21T04:52:35.502Z,100.00
2022-08-21T04:56:43.664Z,100.00
2022-08-21T05:00:46.193Z,100.00
2022-08-21T05:04:50.951Z,100.00
2022-08-21T05:09:01.829Z,100.00
2022-08-21T05:13:04.237Z,100.00
2022-08-21T05:17:06.194Z,100.00
2022-08-21T05:21:07.636Z,100.00
2022-08-21T05:25:11.032Z,100.00
2022-08-21T05:29:16.373Z,100.00
2022-08-21T05:33:17.979Z,100.00
2022-08-21T05:37:19.379Z,100.00
2022-08-21T05:41:21.181Z,100.00
2022-08-21T05:45:43.333Z,100.00
2022-08-21T05:49:45.638Z,100.00
2022-08-21T05:53:47.263Z,100.00
2022-08-21T05:57:49.105Z,100.00
2022-08-21T06:01:53.704Z,100.00
2022-08-21T06:05:56.628Z,100.00
2022-08-21T06:09:58.121Z,100.00
2022-08-21T06:13:59.949Z,100.00
2022-08-21T06:18:01.460Z,100.00
2022-08-21T06:22:03.554Z,100.00
2022-08-21T06:26:07.233Z,100.00
2022-08-21T06:30:09.366Z,100.00
2022-08-21T06:34:11.690Z,100.00
2022-08-21T06:38:13.519Z,100.00
2022-08-21T06:42:18.701Z,100.00
2022-08-21T06:46:20.256Z,100.00
2022-08-21T06:50:21.804Z,100.00
2022-08-21T06:54:23.315Z,100.00
2022-08-21T06:58:24.802Z,100.00
2022-08-21T07:02:26.437Z,100.00
2022-08-21T07:06:27.917Z,100.00
2022-08-21T07:10:30.574Z,100.00
2022-08-21T07:14:32.456Z,100.00
2022-08-21T07:18:33.881Z,100.00
2022-08-21T07:22:37.312Z,100.00
2022-08-21T07:26:39.300Z,100.00
2022-08-21T07:30:40.750Z,100.00
2022-08-21T07:34:43.314Z,100.00
2022-08-21T07:38:44.865Z,100.00
2022-08-21T07:42:48.187Z,100.00
2022-08-21T07:46:49.657Z,100.00
2022-08-21T07:50:52.055Z,100.00
2022-08-21T07:54:54.265Z,100.00
2022-08-21T07:58:56.728Z,100.00
2022-08-21T08:02:58.613Z,96.84
2022-08-21T08:07:00.182Z,91.85
2022-08-21T08:11:02.471Z,89.13
2022-08-21T08:15:08.620Z,88.56
2022-08-21T08:19:10.121Z,87.02
2022-08-21T08:23:13.427Z,82.63
2022-08-21T08:27:15.720Z,78.23
2022-08-21T08:31:17.255Z,75.55
2022-08-21T08:35:18.989Z,77.64
2022-08-21T08:39:29.616Z,77.28
2022-08-21T08:43:34.130Z,77.50
2022-08-21T08:47:40.197Z,70.92
2022-08-21T08:51:53.352Z,72.90
2022-08-21T08:55:54.936Z,72.04
2022-08-21T08:59:58.941Z,76.97
2022-08-21T09:04:01.823Z,74.12
2022-08-21T09:08:09.496Z,71.13
2022-08-21T09:12:31.532Z,71.45
2022-08-21T09:16:55.401Z,67.19
2022-08-21T09:20:57.331Z,70.67
2022-08-21T09:25:19.836Z,70.79
2022-08-21T09:29:26.958Z,68.33
2022-08-21T09:33:29.264Z,68.04
2022-08-21T09:37:35.316Z,69.84
2022-08-21T09:41:38.142Z,70.74
2022-08-21T09:45:42.785Z,69.46
2022-08-21T09:49:44.684Z,66.94
2022-08-21T09:53:50.841Z,67.64
2022-08-21T09:57:52.396Z,65.54
2022-08-21T10:01:55.346Z,62.40
2022-08-21T10:06:06.224Z,60.65
2022-08-21T10:10:23.549Z,62.40
2022-08-21T10:14:41.183Z,58.94
2022-08-21T10:18:50.370Z,58.44
2022-08-21T10:23:20.409Z,59.79
2022-08-21T10:27:52.535Z,54.95
2022-08-21T10:32:30.017Z,53.10
2022-08-21T10:36:46.351Z,50.47
2022-08-21T10:41:01.374Z,54.50
2022-08-21T10:45:16.036Z,49.47
2022-08-21T10:49:30.750Z,51.13
2022-08-21T10:53:55.483Z,48.64
2022-08-21T10:58:21.872Z,47.42
2022-08-21T11:02:32.839Z,47.16
2022-08-21T11:06:37.985Z,45.89
2022-08-21T11:10:54.218Z,46.35
2022-08-21T11:15:05.925Z,43.04
2022-08-21T11:19:23.368Z,42.79
2022-08-21T11:23:48.369Z,42.52
2022-08-21T11:27:59.462Z,41.98
2022-08-21T11:32:41.103Z,42.29
2022-08-21T11:37:02.637Z,42.88
2022-08-21T11:41:30.843Z,41.54
2022-08-21T11:45:51.031Z,41.82
2022-08-21T11:50:34.835Z,39.91
2022-08-21T11:54:47.217Z,42.12
2022-08-21T11:58:52.594Z,41.68
2022-08-21T12:02:59.939Z,43.77
2022-08-21T12:07:30.003Z,40.23
2022-08-21T12:11:31.592Z,40.59
2022-08-21T12:15:33.057Z,38.54
2022-08-21T12:19:35.814Z,39.48
2022-08-21T12:23:59.934Z,38.28
2022-08-21T12:28:10.505Z,37.03
2022-08-21T12:32:11.907Z,40.25
2022-08-21T12:36:22.114Z,36.11
2022-08-21T12:40:32.400Z,37.81
2022-08-21T12:44:43.881Z,38.30
2022-08-21T12:48:52.297Z,36.32
2022-08-21T12:53:06.805Z,37.17
2022-08-21T12:57:31.380Z,35.42
2022-08-21T13:01:41.995Z,35.58
2022-08-21T13:05:43.709Z,35.56
2022-08-21T13:09:51.793Z,36.39
2022-08-21T13:13:54.319Z,35.91
2022-08-21T13:18:02.586Z,37.63
2022-08-21T13:22:34.942Z,38.30
2022-08-21T13:26:26.148Z,40.68
2022-08-21T13:30:27.651Z,44.05
2022-08-21T13:34:37.598Z,43.82
2022-08-21T13:38:42.512Z,41.26
2022-08-21T13:42:45.898Z,40.38
2022-08-21T13:46:48.849Z,41.06
2022-08-21T13:50:52.646Z,42.32
2022-08-21T13:55:10.435Z,40.94
2022-08-21T13:59:25.661Z,38.76
2022-08-21T14:03:33.657Z,39.90
2022-08-21T14:07:40.206Z,40.73
2022-08-21T14:11:41.889Z,42.78
2022-08-21T14:15:44.448Z,41.49
2022-08-21T14:19:48.695Z,44.05
2022-08-21T14:24:05.618Z,45.08
2022-08-21T14:28:28.112Z,47.27
2022-08-21T14:32:37.380Z,46.99
2022-08-21T14:36:46.191Z,47.43
2022-08-21T14:40:53.563Z,49.27
2022-08-21T14:45:00.811Z,48.09
2022-08-21T14:49:03.980Z,48.01
2022-08-21T14:53:11.312Z,50.01
2022-08-21T14:57:13.782Z,51.96
2022-08-21T15:01:18.122Z,49.91
2022-08-21T15:05:24.706Z,52.20
2022-08-21T15:09:34.720Z,48.02
2022-08-21T15:13:37.087Z,48.72
2022-08-21T15:17:38.597Z,48.31
2022-08-21T15:21:41.245Z,46.78
2022-08-21T15:25:44.999Z,47.56
2022-08-21T15:29:46.476Z,47.48
2022-08-21T15:33:47.964Z,46.00
2022-08-21T15:37:49.524Z,46.17
2022-08-21T15:41:51.076Z,48.77
2022-08-21T15:45:52.815Z,50.25
2022-08-21T15:49:54.332Z,49.58
2022-08-21T15:53:55.875Z,48.44
2022-08-21T15:57:59.216Z,47.48
2022-08-21T16:02:02.392Z,48.72
2022-08-21T16:06:04.136Z,49.99
2022-08-21T16:10:07.323Z,49.27
2022-08-21T16:14:08.839Z,50.37
2022-08-21T16:18:11.052Z,52.54
2022-08-21T16:22:12.516Z,50.18
2022-08-21T16:26:18.559Z,51.18
2022-08-21T16:30:21.400Z,54.95
2022-08-21T16:34:22.957Z,52.89
2022-08-21T16:38:24.438Z,53.85
2022-08-21T16:42:26.786Z,54.16
2022-08-21T16:46:31.555Z,52.21
2022-08-21T16:50:33.097Z,46.69
2022-08-21T16:54:34.652Z,45.12
2022-08-21T16:58:39.855Z,42.44
2022-08-21T17:02:48.062Z,46.14
2022-08-21T17:06:49.548Z,48.77
2022-08-21T17:10:51.468Z,49.70
2022-08-21T17:14:52.918Z,47.53
2022-08-21T17:18:54.668Z,45.96
2022-08-21T17:22:56.878Z,46.74
2022-08-21T17:26:59.477Z,48.37
2022-08-21T17:31:02.455Z,48.34
2022-08-21T17:35:12.421Z,44.41
2022-08-21T17:39:21.982Z,47.34
2022-08-21T17:43:25.192Z,46.52
2022-08-21T17:47:26.994Z,47.61
2022-08-21T17:51:28.821Z,51.11
2022-08-21T17:55:31.309Z,51.80
2022-08-21T17:59:33.167Z,52.63
2022-08-21T18:03:38.434Z,55.83
2022-08-21T18:07:41.328Z,57.24
2022-08-21T18:11:43.695Z,58.31
2022-08-21T18:15:49.723Z,61.57
2022-08-21T18:19:51.168Z,62.73
2022-08-21T18:23:55.516Z,63.15
2022-08-21T18:27:57.169Z,64.49
2022-08-21T18:31:58.762Z,64.74
2022-08-21T18:36:00.216Z,66.89
2022-08-21T18:40:08.694Z,68.46
2022-08-21T18:44:12.095Z,69.71
2022-08-21T18:48:15.828Z,70.82
2022-08-21T18:52:20.416Z,71.40
2022-08-21T18:56:22.183Z,74.58
2022-08-21T19:00:37.711Z,74.86
2022-08-21T19:04:48.072Z,76.15
2022-08-21T19:08:50.106Z,76.85
2022-08-21T19:12:51.926Z,77.82
2022-08-21T19:16:53.453Z,78.10
2022-08-21T19:20:55.377Z,78.33
2022-08-21T19:24:58.901Z,77.67
2022-08-21T19:29:05.478Z,78.74
2022-08-21T19:33:07.111Z,78.51
2022-08-21T19:37:12.058Z,78.42
2022-08-21T19:41:16.073Z,81.46
2022-08-21T19:45:17.839Z,84.82
2022-08-21T19:49:33.387Z,86.42
2022-08-21T19:53:35.022Z,86.66
2022-08-21T19:57:38.553Z,88.27
2022-08-21T20:01:40.191Z,90.19
2022-08-21T20:05:44.115Z,91.99
2022-08-21T20:09:45.539Z,92.21
2022-08-21T20:13:51.765Z,93.83
2022-08-21T20:17:54.260Z,94.79
2022-08-21T20:21:58.230Z,95.43
2022-08-21T20:26:00.530Z,97.23
2022-08-21T20:30:05.621Z,98.61
2022-08-21T20:34:07.246Z,99.97
2022-08-21T20:38:08.781Z,100.00
2022-08-21T20:42:11.176Z,100.00
2022-08-21T20:46:16.362Z,100.00
2022-08-21T20:50:24.830Z,100.00
2022-08-21T20:54:45.157Z,100.00
2022-08-21T20:59:03.185Z,100.00
2022-08-21T21:03:12.133Z,100.00
2022-08-21T21:07:21.060Z,100.00
2022-08-21T21:11:36.082Z,100.00
2022-08-21T21:15:43.598Z,99.81
2022-08-21T21:19:51.506Z,99.18
2022-08-21T21:24:16.079Z,99.91
2022-08-21T21:28:30.293Z,98.14
2022-08-21T21:32:31.902Z,98.92
2022-08-21T21:36:58.923Z,99.99
2022-08-21T21:41:17.070Z,100.00
2022-08-21T21:45:26.533Z,100.00
2022-08-21T21:49:39.298Z,100.00
2022-08-21T21:53:59.330Z,100.00
2022-08-21T21:58:27.416Z,100.00
2022-08-21T22:02:56.909Z,100.00
2022-08-21T22:07:09.349Z,100.00
2022-08-21T22:11:24.469Z,100.00
2022-08-21T22:15:30.988Z,100.00
2022-08-21T22:19:40.341Z,100.00
2022-08-21T22:23:52.604Z,100.00
2022-08-21T22:28:11.420Z,100.00
2022-08-21T22:32:39.664Z,100.00
2022-08-21T22:41:28.642Z,100.00
2022-08-21T22:45:33.221Z,100.00
2022-08-21T22:49:47.278Z,100.00
2022-08-21T22:53:55.237Z,100.00
2022-08-21T22:58:23.901Z,100.00
2022-08-21T23:02:30.939Z,100.00
2022-08-21T23:06:32.301Z,100.00
2022-08-21T23:10:40.824Z,100.00
2022-08-21T23:14:42.975Z,100.00
2022-08-21T23:19:02.673Z,100.00
2022-08-21T23:23:23.600Z,100.00
2022-08-21T23:27:48.206Z,100.00
2022-08-21T23:32:02.902Z,100.00
2022-08-21T23:36:29.743Z,100.00
2022-08-21T23:40:51.622Z,100.00
2022-08-21T23:45:14.104Z,100.00
2022-08-21T23:49:44.175Z,100.00
2022-08-21T23:54:00.898Z,100.00
2022-08-21T23:58:26.668Z,100.00
